Flight Track Log - Related Links

Times and Time Zones

All times are in EDT time to prevent confusion due to time zone crossing. See the SWA1787 flight status page for this flight to view local times or setup timezone preferences in your user account.

Time Position Orientation Groundspeed Altitude Reporting Facility
EDT Latitude Longitude Course Direction KTS MPH feet Rate Location/Type
Wed 12:29:00 PM 40.7667 -74.1667 346° North 213 245 3,100  Level New York TRACON
Wed 12:30:00 PM 40.8167 -74.2167 323° Northwest 253 291 5,300 2,850 Climbing New York TRACON
Wed 12:31:00 PM 40.8833 -74.2667 330° Northwest 267 307 8,800 2,952 Climbing New York TRACON
Wed 12:32:06 PM 40.9333 -74.3500 308° West 294 338 11,500 2,500 Climbing New York TRACON
Wed 12:32:48 PM 40.9278 -74.4319 265° West 303 349 13,300 2,059 Climbing New York Center
Wed 12:33:48 PM 40.9286 -74.5392 271° West 356 410 15,000 1,835 Climbing New York Center
Wed 12:34:49 PM 40.9236 -74.6872 267° West 379 436 17,000 992 Climbing New York Center
Wed 12:35:49 PM 40.9236 -74.8136 270° West 379 436 17,000 1,041 Level New York Center
Wed 12:36:50 PM 40.9208 -74.9506 269° West 384 442 19,100 2,231 Climbing New York Center
Wed 12:37:50 PM 40.9175 -75.1014 268° West 392 451 21,500 2,492 Climbing New York Center
Wed 12:38:48 PM 40.8947 -75.2647 260° West 404 465 24,000 2,319 Climbing New York Center
Wed 12:39:49 PM 40.8619 -75.4161 254° West 415 478 26,100 1,918 Climbing New York Center
Wed 12:40:50 PM 40.8267 -75.5675 253° West 427 491 27,900 1,613 Climbing New York Center
Wed 12:41:48 PM 40.7889 -75.7236 252° West 437 503 29,300 1,664 Climbing New York Center
Wed 12:42:49 PM 40.7531 -75.8800 253° West 442 509 31,200 1,770 Climbing New York Center
Wed 12:43:50 PM 40.7131 -76.0331 251° West 447 514 32,900 1,576 Climbing New York Center
Wed 12:44:47 PM 40.6792 -76.1839 254° West 447 514 34,300 1,373 Climbing New York Center
Wed 12:45:48 PM 40.6800 -76.3453 270° West 442 509 35,600 1,488 Climbing New York Center
Wed 12:46:48 PM 40.7019 -76.4978 281° West 436 502 37,300 1,190 Climbing New York Center
Wed 12:47:49 PM 40.7203 -76.6333 280° West 426 490 38,000 344 Climbing New York Center
Wed 12:48:50 PM 40.7442 -76.7833 282° West 426 490 38,000  Level New York Center
Wed 12:49:48 PM 40.7653 -76.9361 280° West 426 490 38,000  Level New York Center
Wed 12:50:48 PM 40.7906 -77.0892 282° West 426 490 38,000  Level New York Center
Wed 12:51:49 PM 40.8094 -77.2417 279° West 426 490 38,000  Level New York Center
Wed 12:52:50 PM 40.8325 -77.3919 282° West 426 490 38,000  Level New York Center
Wed 12:54:45 PM 40.8750 -77.6906 281° West 430 495 38,000  Level Cleveland Center
Wed 12:55:47 PM 40.8958 -77.8411 280° West 422 486 38,000  Level Cleveland Center
Wed 12:56:49 PM 40.9206 -78.0219 280° West 418 481 38,000  Level Cleveland Center
Wed 12:57:51 PM 40.9383 -78.1764 279° West 426 490 38,000  Level Cleveland Center
Wed 12:58:53 PM 40.9561 -78.3147 280° West 423 487 38,000  Level Cleveland Center
Wed 12:59:56 PM 40.9758 -78.4689 280° West 427 491 38,000  Level Cleveland Center
Wed 01:00:58 PM 40.9911 -78.6497 276° West 420 483 38,000  Level Cleveland Center
Wed 01:02:00 PM 41.0133 -78.8025 281° West 424 488 38,000  Level Cleveland Center
Wed 01:03:02 PM 41.0311 -78.9553 279° West 422 486 38,000  Level Cleveland Center
Wed 01:04:04 PM 41.0486 -79.1061 279° West 418 481 38,000  Level Cleveland Center
Wed 01:05:06 PM 41.0586 -79.2581 275° West 417 480 38,000  Level Cleveland Center
Wed 01:06:08 PM 41.0692 -79.4403 274° West 417 480 38,000  Level Cleveland Center
Wed 01:07:10 PM 41.0781 -79.5933 274° West 419 482 38,000  Level Cleveland Center
Wed 01:08:12 PM 41.0867 -79.7481 274° West 422 486 38,000  Level Cleveland Center
Wed 01:09:14 PM 41.0958 -79.9033 275° West 426 490 38,000  Level Cleveland Center
Wed 01:10:16 PM 41.1039 -80.0603 274° West 430 495 38,000  Level Cleveland Center
Wed 01:11:18 PM 41.1142 -80.2517 274° West 434 499 38,000  Level Cleveland Center
Wed 01:12:20 PM 41.1214 -80.4097 274° West 433 498 38,000  Level Cleveland Center
Wed 01:13:23 PM 41.1294 -80.5719 274° West 433 498 38,000  Level Cleveland Center
Wed 01:14:25 PM 41.1378 -80.7331 274° West 433 498 38,000  Level Cleveland Center
Wed 01:15:27 PM 41.1447 -80.8928 273° West 432 497 38,000  Level Cleveland Center
Wed 01:16:29 PM 41.1517 -81.0533 273° West 431 496 38,000  Level Cleveland Center
Wed 01:17:31 PM 41.1586 -81.2128 273° West 431 496 38,000  Level Cleveland Center
Wed 01:18:33 PM 41.1664 -81.4000 273° West 430 495 38,000  Level Cleveland Center
Wed 01:19:35 PM 41.1717 -81.5475 273° West 431 496 38,000  Level Cleveland Center
Wed 01:20:37 PM 41.1772 -81.7064 273° West 433 498 38,000  Level Cleveland Center
Wed 01:21:39 PM 41.1844 -81.8658 273° West 434 499 38,000  Level Cleveland Center
Wed 01:22:41 PM 41.1911 -82.0575 273° West 435 501 38,000  Level Cleveland Center
Wed 01:23:43 PM 41.1972 -82.2175 273° West 439 505 38,000  Level Cleveland Center
Wed 01:24:45 PM 41.2022 -82.3811 272° West 439 505 38,000  Level Cleveland Center
Wed 01:25:47 PM 41.2081 -82.5447 273° West 440 506 38,000  Level Cleveland Center
Wed 01:26:50 PM 41.2125 -82.7092 272° West 441 507 38,000  Level Cleveland Center
Wed 01:27:52 PM 41.2178 -82.8728 273° West 440 506 38,000  Level Cleveland Center
Wed 01:28:54 PM 41.2217 -83.0625 272° West 438 504 38,000  Level Cleveland Center
Wed 01:29:56 PM 41.2264 -83.2078 273° West 435 501 38,000  Level Cleveland Center
Wed 01:30:58 PM 41.2300 -83.3686 272° West 436 502 38,000  Level Cleveland Center
Wed 01:32:00 PM 41.2350 -83.5611 272° West 434 499 38,000  Level Cleveland Center
Wed 01:33:02 PM 41.2381 -83.7211 272° West 433 498 38,000  Level Cleveland Center
Wed 01:34:04 PM 41.2419 -83.8828 272° West 437 503 38,000  Level Cleveland Center
Wed 01:35:06 PM 41.2458 -84.0356 272° West 435 501 38,000  Level Cleveland Center
Wed 01:36:08 PM 41.2475 -84.1972 271° West 438 504 38,000  Level Cleveland Center
Wed 01:37:10 PM 41.2511 -84.3892 271° West 433 498 38,000  Level Cleveland Center
Wed 01:38:12 PM 41.2531 -84.5478 271° West 431 496 38,000  Level Cleveland Center
Wed 01:39:14 PM 41.2558 -84.7061 271° West 428 493 38,000  Level Cleveland Center
Wed 01:40:17 PM 41.2561 -84.8650 270° West 429 494 38,000  Level Cleveland Center
Wed 01:41:19 PM 41.2589 -85.0264 271° West 434 499 38,000  Level Cleveland Center
Wed 01:42:21 PM 41.2600 -85.1869 271° West 432 497 38,000  Level Cleveland Center
Wed 01:43:23 PM 41.2611 -85.3486 271° West 433 498 38,000  Level Cleveland Center
Wed 01:44:25 PM 41.2617 -85.5439 270° West 437 503 38,000  Level Cleveland Center
Wed 01:45:27 PM 41.2661 -85.7075 272° West 439 505 38,000  Level Cleveland Center
Wed 01:46:29 PM 41.2703 -85.8703 272° West 438 504 38,000  Level Cleveland Center
Wed 01:47:31 PM 41.2733 -86.0314 271° West 438 504 38,000  Level Cleveland Center
Wed 01:48:33 PM 41.2764 -86.1933 271° West 438 504 38,000  Level Cleveland Center
Wed 01:49:35 PM 41.2794 -86.3525 272° West 433 498 38,000  Level Cleveland Center
Wed 01:51:02 PM 41.2811 -86.5708 271° West 426 490 38,000  Level Chicago Center
Wed 01:52:04 PM 41.2836 -86.7442 271° West 423 487 38,000  Level Chicago Center
Wed 01:53:06 PM 41.2858 -86.8983 271° West 420 483 38,000  Level Chicago Center
Wed 01:54:08 PM 41.2883 -87.0844 271° West 421 484 38,000  Level Chicago Center
Wed 01:55:10 PM 41.2900 -87.2411 271° West 424 488 38,000  Level Chicago Center
Wed 01:56:12 PM 41.2908 -87.3964 270° West 421 484 38,000  Level Chicago Center
Wed 01:57:14 PM 41.2933 -87.5528 271° West 423 487 38,000  Level Chicago Center
Wed 01:58:16 PM 41.2942 -87.7108 270° West 427 491 38,000  Level Chicago Center
Wed 01:59:18 PM 41.2953 -87.8678 271° West 424 488 38,000  Level Chicago Center
Wed 02:00:20 PM 41.2931 -88.0256 269° West 423 487 38,000  Level Chicago Center
Wed 02:01:22 PM 41.2950 -88.2172 271° West 424 488 38,000  Level Chicago Center
Wed 02:02:24 PM 41.2953 -88.3725 270° West 420 483 38,000  Level Chicago Center
Wed 02:03:26 PM 41.2956 -88.5256 270° West 417 480 38,000  Level Chicago Center
Wed 02:04:28 PM 41.2947 -88.6797 270° West 417 480 38,000  Level Chicago Center
Wed 02:05:30 PM 41.2947 -88.8347 270° West 419 482 38,000  Level Chicago Center
Wed 02:06:32 PM 41.2936 -88.9889 270° West 420 483 38,000  Level Chicago Center
Wed 02:07:34 PM 41.2925 -89.1736 270° West 420 483 38,000  Level Chicago Center
Wed 02:08:36 PM 41.2914 -89.3308 270° West 424 488 38,000  Level Chicago Center
Wed 02:09:38 PM 41.2914 -89.4867 270° West 426 490 38,000  Level Chicago Center
Wed 02:10:40 PM 41.2911 -89.6411 270° West 422 486 38,000  Level Chicago Center
Wed 02:11:42 PM 41.2878 -89.7928 268° West 417 480 38,000  Level Chicago Center
Wed 02:12:44 PM 41.2858 -89.9447 269° West 415 478 38,000  Level Chicago Center
Wed 02:13:46 PM 41.2828 -90.1231 269° West 408 470 38,000  Level Chicago Center
Wed 02:14:48 PM 41.2814 -90.2722 269° West 406 467 38,000  Level Chicago Center
Wed 02:15:50 PM 41.2778 -90.4208 268° West 404 465 38,000  Level Chicago Center
Wed 02:16:52 PM 41.2756 -90.5694 269° West 405 466 38,000  Level Chicago Center
Wed 02:17:54 PM 41.2722 -90.7161 268° West 401 461 38,000  Level Chicago Center
Wed 02:18:56 PM 41.2681 -90.8633 268° West 400 460 38,000  Level Chicago Center
Wed 02:19:58 PM 41.2644 -91.0400 269° West 400 460 38,000  Level Chicago Center
Wed 02:21:00 PM 41.2614 -91.1864 268° West 399 459 38,000  Level Chicago Center
Wed 02:22:03 PM 41.2569 -91.3281 268° West 387 445 38,000  Level Chicago Center
Wed 02:23:05 PM 41.2533 -91.4714 268° West 386 444 38,000  Level Chicago Center
Wed 02:24:07 PM 41.2494 -91.6125 268° West 384 442 38,000  Level Chicago Center
Wed 02:25:09 PM 41.2447 -91.7681 268° West 381 438 38,000  Level Chicago Center
Wed 02:26:11 PM 41.2408 -91.9108 268° West 389 448 38,000  Level Chicago Center
Wed 02:27:13 PM 41.2367 -92.0533 268° West 390 449 38,000  Level Chicago Center
Wed 02:28:15 PM 41.2303 -92.2247 267° West 392 451 38,000  Level Chicago Center
Wed 02:29:17 PM 41.2250 -92.3683 267° West 395 455 38,000  Level Chicago Center
Wed 02:30:19 PM 41.2197 -92.5086 267° West 389 448 38,000  Level Chicago Center
Wed 02:31:21 PM 41.2150 -92.6517 268° West 392 451 38,000  Level Chicago Center
Wed 02:32:24 PM 41.2083 -92.8181 267° West 384 442 38,000  Level Chicago Center
Wed 02:33:11 PM 41.2039 -92.9281 267° West 387 445 38,000  Level Minneapolis Center
Wed 02:34:13 PM 41.2000 -93.0669 268° West 383 441 38,000  Level Minneapolis Center
Wed 02:35:15 PM 41.1933 -93.2064 266° West 383 441 38,000  Level Minneapolis Center
Wed 02:36:17 PM 41.1878 -93.3472 267° West 385 443 38,000  Level Minneapolis Center
Wed 02:37:19 PM 41.1819 -93.4883 267° West 386 444 38,000  Level Minneapolis Center
Wed 02:38:22 PM 41.1739 -93.6569 266° West 385 443 38,000  Level Minneapolis Center
Wed 02:39:24 PM 41.1672 -93.7981 266° West 387 445 38,000  Level Minneapolis Center
Wed 02:40:26 PM 41.1608 -93.9375 267° West 384 442 38,000  Level Minneapolis Center
Wed 02:41:28 PM 41.1542 -94.0764 266° West 382 440 38,000  Level Minneapolis Center
Wed 02:42:30 PM 41.1450 -94.2433 266° West 383 441 38,000  Level Minneapolis Center
Wed 02:43:32 PM 41.1339 -94.3881 264° West 387 445 38,000  Level Minneapolis Center
Wed 02:44:34 PM 41.1264 -94.5267 266° West 387 445 38,000  Level Minneapolis Center
Wed 02:45:36 PM 41.1231 -94.6642 268° West 378 435 38,000  Level Minneapolis Center
Wed 02:46:38 PM 41.1142 -94.8047 265° West 382 440 38,000  Level Minneapolis Center
Wed 02:47:39 PM 41.1067 -94.9442 266° West 382 440 38,000  Level Minneapolis Center
Wed 02:48:41 PM 41.0986 -95.0850 266° West 382 440 38,000  Level Minneapolis Center
Wed 02:49:43 PM 41.0881 -95.2531 265° West 383 441 38,000  Level Minneapolis Center
Wed 02:50:45 PM 41.0792 -95.3919 265° West 379 436 38,000  Level Minneapolis Center
Wed 02:51:47 PM 41.0692 -95.5314 265° West 379 436 38,000  Level Minneapolis Center
Wed 02:52:49 PM 41.0608 -95.6708 266° West 378 435 38,000  Level Minneapolis Center
Wed 02:53:51 PM 41.0514 -95.8100 265° West 377 434 38,000  Level Minneapolis Center
Wed 02:54:53 PM 41.0419 -95.9492 265° West 377 434 38,000  Level Minneapolis Center
Wed 02:55:54 PM 41.0331 -96.0894 265° West 377 434 38,000  Level Minneapolis Center
Wed 02:56:56 PM 41.0242 -96.2286 265° West 377 434 38,000  Level Minneapolis Center
Wed 02:57:58 PM 41.0147 -96.3667 265° West 375 432 38,000  Level Minneapolis Center
Wed 02:59:00 PM 41.0031 -96.5306 265° West 372 428 38,000  Level Minneapolis Center
Wed 03:00:02 PM 40.9939 -96.6664 265° West 371 427 38,000  Level Minneapolis Center
Wed 03:01:04 PM 40.9839 -96.8014 264° West 370 426 38,000  Level Minneapolis Center
Wed 03:02:05 PM 40.9733 -96.9369 264° West 370 426 38,000  Level Minneapolis Center
Wed 03:03:07 PM 40.9639 -97.0731 265° West 371 427 38,000  Level Minneapolis Center
Wed 03:04:09 PM 40.9528 -97.2078 264° West 370 426 38,000  Level Minneapolis Center
Wed 03:05:11 PM 40.9419 -97.3436 264° West 370 426 38,000  Level Minneapolis Center
Wed 03:06:12 PM 40.9286 -97.5064 264° West 371 427 38,000  Level Minneapolis Center
Wed 03:07:14 PM 40.9181 -97.6417 264° West 371 427 38,000  Level Minneapolis Center
Wed 03:08:16 PM 40.9075 -97.7769 264° West 370 426 38,000  Level Minneapolis Center
Wed 03:09:18 PM 40.8950 -97.9114 263° West 370 426 38,000  Level Minneapolis Center
Wed 03:10:20 PM 40.8842 -98.0478 264° West 371 427 38,000  Level Minneapolis Center
Wed 03:11:21 PM 40.8733 -98.1836 264° West 372 428 38,000  Level Minneapolis Center
Wed 03:12:23 PM 40.8614 -98.3186 263° West 372 428 38,000  Level Minneapolis Center
Wed 03:13:25 PM 40.8497 -98.4542 264° West 371 427 38,000  Level Minneapolis Center
Wed 03:14:27 PM 40.8347 -98.6156 263° West 370 426 38,000 -387 Level Minneapolis Center
Wed 03:15:29 PM 40.8236 -98.7500 264° West 369 425 37,200 -878 Descending Minneapolis Center
Wed 03:16:30 PM 40.8194 -98.8858 268° West 369 425 36,200 -585 Descending Minneapolis Center
Wed 03:17:32 PM 40.8194 -99.0269 270° West 374 430 36,000 -97 Descending Minneapolis Center
Wed 03:18:34 PM 40.8172 -99.1683 269° West 380 437 36,000  Level Minneapolis Center
Wed 03:19:36 PM 40.8169 -99.3097 270° West 383 441 36,000  Level Minneapolis Center
Wed 03:20:38 PM 40.8147 -99.4500 269° West 383 441 36,000  Level Minneapolis Center
Wed 03:21:40 PM 40.8114 -99.6175 269° West 382 440 36,000  Level Minneapolis Center
Wed 03:22:42 PM 40.8075 -99.7569 268° West 381 438 36,000  Level Minneapolis Center
Wed 03:23:43 PM 40.8042 -99.8964 268° West 381 438 36,000  Level Minneapolis Center
Wed 03:24:50 PM 40.8025 -100.0494 269° West 386 444 36,000  Level Denver Center
Wed 03:25:52 PM 40.7978 -100.2064 268° West 384 442 36,000  Level Denver Center
Wed 03:26:54 PM 40.7947 -100.3417 268° West 386 444 36,000  Level Denver Center
Wed 03:27:56 PM 40.7906 -100.4986 268° West 384 442 36,000  Level Denver Center
Wed 03:28:58 PM 40.7856 -100.6317 267° West 379 436 36,000  Level Denver Center
Wed 03:30:00 PM 40.7661 -100.7764 260° West 394 453 36,000  Level Denver Center
Wed 03:31:03 PM 40.7406 -100.9294 258° West 386 444 36,000  Level Denver Center
Wed 03:32:05 PM 40.7192 -101.0614 258° West 384 442 36,000  Level Denver Center
Wed 03:33:07 PM 40.6922 -101.2164 257° West 388 447 36,000  Level Denver Center
Wed 03:34:09 PM 40.6689 -101.3492 257° West 388 447 36,000  Level Denver Center
Wed 03:35:11 PM 40.6419 -101.5008 257° West 382 440 36,000  Level Denver Center
Wed 03:36:13 PM 40.6186 -101.6300 257° West 380 437 36,000  Level Denver Center
Wed 03:37:15 PM 40.5919 -101.7781 257° West 372 428 36,000  Level Denver Center
Wed 03:38:17 PM 40.5678 -101.9061 256° West 376 433 36,000  Level Denver Center
Wed 03:39:19 PM 40.5461 -102.0322 257° West 371 427 36,000  Level Denver Center
Wed 03:40:21 PM 40.5194 -102.1794 257° West 370 426 36,000  Level Denver Center
Wed 03:41:23 PM 40.4958 -102.3047 256° West 369 425 36,000  Level Denver Center
Wed 03:42:25 PM 40.4681 -102.4500 256° West 367 422 36,000  Level Denver Center
Wed 03:43:27 PM 40.4456 -102.5750 257° West 367 422 36,000  Level Denver Center
Wed 03:44:29 PM 40.4219 -102.7069 257° West 369 425 36,000  Level Denver Center
Wed 03:45:31 PM 40.3967 -102.8372 256° West 371 427 36,000 -1,597 Level Denver Center
Wed 03:46:33 PM 40.3669 -102.9942 256° West 372 428 32,700 -2,758 Descending Denver Center
Wed 03:47:35 PM 40.3419 -103.1264 256° West 373 429 30,300 -2,274 Descending Denver Center
Wed 03:48:37 PM 40.3172 -103.2536 256° West 364 419 28,000 -2,177 Descending Denver Center
Wed 03:49:39 PM 40.2933 -103.3783 256° West 355 409 25,800 -2,129 Descending Denver Center
Wed 03:50:41 PM 40.2694 -103.4994 256° West 347 399 23,600 -2,032 Descending Denver Center
Wed 03:51:43 PM 40.2458 -103.6197 256° West 343 395 21,600 -2,032 Descending Denver Center
Wed 03:52:45 PM 40.2167 -103.7633 255° West 345 397 19,400 -1,548 Descending Denver Center
Wed 03:53:47 PM 40.2014 -103.8761 260° West 314 361 18,400 -1,355 Descending Denver Center
Wed 03:54:49 PM 40.2117 -103.9831 277° West 297 342 16,600 -1,645 Descending Denver Center
Wed 03:55:51 PM 40.2239 -104.0961 278° West 293 337 15,000 -1,452 Descending Denver Center
Wed 03:56:53 PM 40.2317 -104.1956 276° West 280 322 13,600 -1,355 Descending Denver Center
Wed 03:57:55 PM 40.2422 -104.3050 277° West 283 326 12,200 -968 Descending Denver Center
Wed 03:58:57 PM 40.2519 -104.3994 278° West 268 308 11,600 -774 Descending Denver Center
Wed 03:59:59 PM 40.2411 -104.4917 261° West 244 281 10,600 -968 Descending Denver Center
Wed 04:01:01 PM 40.2244 -104.5789 256° West 247 284 9,600 -919 Descending Denver Center
Wed 04:02:03 PM 40.1778 -104.6447 227° Southwest 236 272 8,700 -726 Descending Denver Center
Wed 04:03:05 PM 40.1242 -104.6867 211° Southwest 227 261 8,100 -339 Descending Denver Center
Wed 04:04:07 PM 40.0642 -104.6847 179° South 212 244 8,000 -339 Descending Denver Center
Wed 04:05:09 PM 40.0100 -104.6856 181° South 183 211 7,400 -677 Descending Denver Center
Wed 04:06:11 PM 39.9628 -104.6864 181° South 172 198 6,600 -774 Descending Denver Center
Wed 04:07:13 PM 39.9192 -104.6867 180° South 150 173 5,800 -629 Descending Denver Center
Wed 04:08:15 PM 39.8844 -104.6869 180° South 142 163 5,300 -484 Descending Denver Center
Wed 04:10:00 PM 39.8617 -104.6732 North  Level Estimated
Wed 04:17:00 PM 39.8617 -104.6732 North  Level Estimated
Wed 04:18:00 PM 39.8617 -104.6732 North  Level Estimated

Login

Don't have an account? Register now (free) for customized features, flight alerts, and more!